Terminal Aerodrome Forecast
Issued by NWS

Home | Current Version | Previous Version | Text Only | Print | Product List | Glossary On
Versions: 1 2 3 4 5 6 7 8 9 10 11 12 13 14 15 16 17 18 19 20 21 22 23 24 25 26 27 28 29 30 31 32 33 34 35 36
266
FTUS43 KDLH 112337
TAFHIB
TAF
KHIB 112337Z 1200/1224 34013G22KT P6SM VCSH BKN025
      TEMPO 1200/1202 5SM -SHSN
     FM120300 33010G17KT P6SM SCT025
     FM120800 32007KT P6SM SCT030
     FM121300 31008KT P6SM SCT030 BKN080=

USA.gov is the U.S. government's official web portal to all federal, state and local government web resources and services.